createdAt,value
2019-03-23T00:00:57.639Z,5.68
2019-03-23T00:01:57.648Z,5.65
2019-03-23T00:02:57.661Z,5.74
2019-03-23T00:03:57.670Z,5.72
2019-03-23T00:04:57.678Z,5.67
2019-03-23T00:05:57.692Z,5.67
2019-03-23T00:06:57.702Z,5.58
2019-03-23T00:07:57.715Z,5.63
2019-03-23T00:08:57.727Z,5.61
2019-03-23T00:09:58.710Z,5.68
2019-03-23T00:10:57.754Z,5.63
2019-03-23T00:11:57.757Z,5.63
2019-03-23T00:12:57.780Z,5.61
2019-03-23T00:13:57.783Z,5.54
2019-03-23T00:14:57.789Z,5.54
2019-03-23T00:15:57.800Z,5.53
2019-03-23T00:16:57.828Z,5.51
2019-03-23T00:17:57.822Z,5.49
2019-03-23T00:18:57.833Z,5.48
2019-03-23T00:19:57.849Z,5.60
2019-03-23T00:20:57.867Z,5.54
2019-03-23T00:21:57.864Z,5.49
2019-03-23T00:22:57.878Z,5.53
2019-03-23T00:23:57.895Z,5.49
2019-03-23T00:24:57.903Z,5.53
2019-03-23T00:25:57.913Z,5.46
2019-03-23T00:26:57.919Z,5.54
2019-03-23T00:27:57.929Z,5.45
2019-03-23T00:28:57.947Z,5.53
2019-03-23T00:29:57.955Z,5.36
2019-03-23T00:30:57.968Z,5.35
2019-03-23T00:31:58.006Z,5.38
2019-03-23T00:32:57.984Z,5.40
2019-03-23T00:33:57.998Z,5.40
2019-03-23T00:34:58.009Z,5.39
2019-03-23T00:35:58.019Z,5.36
2019-03-23T00:36:58.025Z,5.45
2019-03-23T00:37:58.040Z,5.35
2019-03-23T00:38:58.046Z,5.38
2019-03-23T00:39:58.062Z,5.38
2019-03-23T00:40:58.071Z,5.39
2019-03-23T00:41:58.080Z,5.42
2019-03-23T00:42:58.089Z,5.39
2019-03-23T00:43:58.103Z,5.39
2019-03-23T00:44:58.113Z,5.42
2019-03-23T00:45:58.127Z,5.35
2019-03-23T00:46:58.131Z,5.28
2019-03-23T00:47:58.155Z,5.35
2019-03-23T00:48:58.152Z,5.36
2019-03-23T00:49:58.164Z,5.38
2019-03-23T00:50:58.173Z,5.31
2019-03-23T00:51:58.183Z,5.35
2019-03-23T00:52:58.196Z,5.33
2019-03-23T00:53:58.208Z,5.35
2019-03-23T00:54:58.218Z,5.39
2019-03-23T00:55:58.242Z,5.33
2019-03-23T00:56:58.242Z,5.33
2019-03-23T00:57:58.246Z,5.31
2019-03-23T00:58:58.257Z,5.27
2019-03-23T00:59:58.268Z,5.24
2019-03-23T01:00:58.279Z,5.24
2019-03-23T01:01:58.287Z,5.21
2019-03-23T01:02:58.299Z,5.25
2019-03-23T01:03:58.311Z,5.25
2019-03-23T01:04:58.325Z,5.22
2019-03-23T01:05:58.333Z,5.21
2019-03-23T01:06:58.350Z,5.24
2019-03-23T01:07:58.355Z,5.27
2019-03-23T01:08:58.363Z,5.22
2019-03-23T01:09:58.372Z,5.21
2019-03-23T01:10:58.383Z,5.24
2019-03-23T01:11:58.394Z,5.24
2019-03-23T01:12:58.404Z,5.25
2019-03-23T01:13:58.417Z,5.17
2019-03-23T01:14:58.425Z,5.24
2019-03-23T01:15:58.436Z,5.20
2019-03-23T01:16:58.445Z,5.13
2019-03-23T01:17:58.459Z,5.18
2019-03-23T01:18:58.468Z,5.18
2019-03-23T01:19:58.486Z,5.06
2019-03-23T01:20:58.495Z,5.12
2019-03-23T01:21:58.503Z,5.09
2019-03-23T01:22:58.511Z,5.12
2019-03-23T01:23:58.520Z,5.06
2019-03-23T01:24:58.535Z,5.06
2019-03-23T01:25:58.600Z,5.02
2019-03-23T01:26:58.551Z,4.96
2019-03-23T01:27:58.564Z,4.97
2019-03-23T01:28:58.572Z,4.89
2019-03-23T01:29:58.581Z,5.04
2019-03-23T01:30:58.593Z,4.99
2019-03-23T01:31:58.604Z,4.92
2019-03-23T01:32:58.612Z,5.04
2019-03-23T01:33:58.624Z,4.97
2019-03-23T01:34:58.634Z,4.96
2019-03-23T01:35:58.650Z,4.96
2019-03-23T01:37:02.651Z,4.97
2019-03-23T01:37:58.670Z,4.92
2019-03-23T01:38:58.682Z,4.91
2019-03-23T01:39:58.696Z,4.97
2019-03-23T01:40:58.697Z,4.94
2019-03-23T01:41:58.710Z,4.94
2019-03-23T01:42:58.720Z,4.97
2019-03-23T01:43:58.731Z,4.91
2019-03-23T01:44:58.740Z,4.86
2019-03-23T01:45:58.751Z,4.85
2019-03-23T01:46:58.758Z,4.86
2019-03-23T01:47:58.776Z,4.78
2019-03-23T01:48:58.780Z,4.82
2019-03-23T01:49:58.788Z,4.77
2019-03-23T01:50:58.803Z,4.75
2019-03-23T01:51:58.815Z,4.75
2019-03-23T01:52:58.823Z,4.66
2019-03-23T01:53:58.832Z,4.70
2019-03-23T01:54:58.842Z,4.66
2019-03-23T01:55:58.852Z,4.63
2019-03-23T01:56:58.862Z,4.69
2019-03-23T01:57:58.873Z,4.72
2019-03-23T01:58:58.886Z,4.73
2019-03-23T01:59:58.892Z,4.72
2019-03-23T02:00:58.902Z,4.73
2019-03-23T02:01:58.916Z,4.78
2019-03-23T02:02:58.922Z,4.70
2019-03-23T02:03:58.939Z,4.80
2019-03-23T02:04:58.942Z,4.80
2019-03-23T02:05:58.953Z,4.78
2019-03-23T02:06:58.962Z,4.73
2019-03-23T02:07:58.978Z,4.86
2019-03-23T02:08:58.983Z,4.73
2019-03-23T02:09:58.993Z,4.67
2019-03-23T02:10:59.004Z,4.72
2019-03-23T02:11:59.013Z,4.69
2019-03-23T02:12:59.033Z,4.78
2019-03-23T02:13:59.032Z,4.72
2019-03-23T02:14:59.044Z,4.75
2019-03-23T02:15:59.059Z,4.82
2019-03-23T02:16:59.064Z,4.72
2019-03-23T02:17:59.073Z,4.67
2019-03-23T02:18:59.087Z,4.63
2019-03-23T02:19:59.094Z,4.69
2019-03-23T02:20:59.106Z,4.70
2019-03-23T02:21:59.114Z,4.72
2019-03-23T02:22:59.127Z,4.75
2019-03-23T02:23:59.135Z,4.65
2019-03-23T02:24:59.150Z,4.69
2019-03-23T02:25:59.158Z,4.69
2019-03-23T02:26:59.168Z,4.70
2019-03-23T02:27:59.180Z,4.75
2019-03-23T02:28:59.189Z,4.62
2019-03-23T02:29:59.195Z,4.72
2019-03-23T02:30:59.206Z,4.69
2019-03-23T02:31:59.215Z,4.69
2019-03-23T02:32:59.231Z,4.69
2019-03-23T02:33:59.262Z,4.75
2019-03-23T02:34:59.250Z,4.73
2019-03-23T02:35:59.269Z,4.70
2019-03-23T02:36:59.267Z,4.69
2019-03-23T02:37:59.281Z,4.77
2019-03-23T02:38:59.290Z,4.69
2019-03-23T02:39:59.299Z,4.72
2019-03-23T02:40:59.311Z,4.65
2019-03-23T02:41:59.316Z,4.69
2019-03-23T02:42:59.330Z,4.66
2019-03-23T02:43:59.349Z,4.67
2019-03-23T02:44:59.348Z,4.66
2019-03-23T02:45:59.361Z,4.66
2019-03-23T02:46:59.376Z,4.72
2019-03-23T02:47:59.377Z,4.73
2019-03-23T02:48:59.390Z,4.66
2019-03-23T02:49:59.397Z,4.67
2019-03-23T02:50:59.410Z,4.69
2019-03-23T02:51:59.419Z,4.66
2019-03-23T02:52:59.432Z,4.73
2019-03-23T02:53:59.441Z,4.70
2019-03-23T02:54:59.474Z,4.66
2019-03-23T02:55:59.464Z,4.73
2019-03-23T02:56:59.475Z,4.72
2019-03-23T02:57:59.481Z,4.77
2019-03-23T02:58:59.489Z,4.72
2019-03-23T02:59:59.501Z,4.67
2019-03-23T03:00:59.508Z,4.73
2019-03-23T03:01:59.524Z,4.70
2019-03-23T03:02:59.536Z,4.66
2019-03-23T03:03:59.540Z,4.72
2019-03-23T03:04:59.549Z,4.72
2019-03-23T03:05:59.557Z,4.73
2019-03-23T03:06:59.570Z,4.67
2019-03-23T03:07:59.578Z,4.65
2019-03-23T03:08:59.591Z,4.52
2019-03-23T03:09:59.599Z,4.60
2019-03-23T03:10:59.610Z,4.60
2019-03-23T03:11:59.629Z,4.50
2019-03-23T03:12:59.632Z,4.60
2019-03-23T03:13:59.643Z,4.52
2019-03-23T03:14:59.658Z,4.52
2019-03-23T03:15:59.662Z,4.65
2019-03-23T03:16:59.671Z,4.50
2019-03-23T03:17:59.682Z,4.63
2019-03-23T03:18:59.691Z,4.50
2019-03-23T03:19:59.702Z,4.55
2019-03-23T03:20:59.707Z,4.55
2019-03-23T03:21:59.720Z,4.55
2019-03-23T03:22:59.732Z,4.45
2019-03-23T03:23:59.741Z,4.50
2019-03-23T03:24:59.754Z,4.47
2019-03-23T03:25:59.765Z,4.51
2019-03-23T03:26:59.773Z,4.47
2019-03-23T03:27:59.781Z,4.45
2019-03-23T03:28:59.792Z,4.45
2019-03-23T03:29:59.803Z,4.34
2019-03-23T03:30:59.811Z,4.48
2019-03-23T03:31:59.825Z,4.45
2019-03-23T03:32:59.837Z,4.45
2019-03-23T03:33:59.840Z,4.47
2019-03-23T03:34:59.861Z,4.40
2019-03-23T03:35:59.861Z,4.44
2019-03-23T03:36:59.868Z,4.42
2019-03-23T03:37:59.878Z,4.41
2019-03-23T03:38:59.901Z,4.41
2019-03-23T03:39:59.905Z,4.48
2019-03-23T03:40:59.911Z,4.34
2019-03-23T03:41:59.925Z,4.42
2019-03-23T03:42:59.936Z,4.37
2019-03-23T03:43:59.948Z,4.37
2019-03-23T03:44:59.950Z,4.30
2019-03-23T03:45:59.959Z,4.24
2019-03-23T03:46:59.965Z,4.24
2019-03-23T03:47:59.978Z,4.29
2019-03-23T03:49:11.838Z,4.27
2019-03-23T03:49:59.994Z,4.22
2019-03-23T03:51:00.004Z,4.27
2019-03-23T03:52:00.014Z,4.26
2019-03-23T03:53:00.030Z,4.26
2019-03-23T03:54:00.042Z,4.27
2019-03-23T03:55:00.048Z,4.40
2019-03-23T03:56:00.059Z,4.37
2019-03-23T03:57:00.064Z,4.34
2019-03-23T03:58:00.077Z,4.42
2019-03-23T03:59:00.093Z,4.40
2019-03-23T04:00:00.275Z,4.32
2019-03-23T04:01:00.108Z,4.34
2019-03-23T04:02:00.115Z,4.37
2019-03-23T04:03:00.131Z,4.37
2019-03-23T04:04:00.130Z,4.29
2019-03-23T04:05:00.362Z,4.26
2019-03-23T04:06:00.154Z,4.22
2019-03-23T04:07:00.163Z,4.20
2019-03-23T04:08:11.093Z,4.29
2019-03-23T04:09:00.178Z,4.29
2019-03-23T04:10:00.528Z,4.23
2019-03-23T04:11:00.205Z,4.22
2019-03-23T04:12:00.208Z,4.20
2019-03-23T04:13:00.221Z,4.24
2019-03-23T04:14:00.231Z,4.24
2019-03-23T04:15:00.378Z,4.23
2019-03-23T04:16:00.254Z,4.24
2019-03-23T04:17:00.262Z,4.16
2019-03-23T04:18:00.273Z,4.22
2019-03-23T04:19:00.278Z,4.23
2019-03-23T04:20:00.625Z,4.24
2019-03-23T04:21:00.301Z,4.08
2019-03-23T04:22:00.312Z,4.18
2019-03-23T04:23:00.325Z,4.08
2019-03-23T04:24:00.328Z,4.14
2019-03-23T04:25:00.639Z,4.04
2019-03-23T04:26:00.345Z,4.05
2019-03-23T04:27:00.353Z,4.09
2019-03-23T04:28:00.361Z,4.11
2019-03-23T04:29:00.377Z,4.11
2019-03-23T04:30:00.473Z,4.09
2019-03-23T04:31:00.402Z,4.12
2019-03-23T04:32:00.409Z,4.12
2019-03-23T04:33:00.417Z,4.09
2019-03-23T04:34:00.424Z,4.14
2019-03-23T04:35:00.435Z,4.11
2019-03-23T04:36:00.439Z,4.12
2019-03-23T04:37:00.453Z,4.12
2019-03-23T04:38:00.458Z,4.09
2019-03-23T04:39:00.471Z,4.06
2019-03-23T04:40:00.549Z,4.16
2019-03-23T04:41:00.487Z,4.08
2019-03-23T04:42:00.502Z,4.16
2019-03-23T04:43:00.508Z,4.11
2019-03-23T04:44:00.535Z,4.11
2019-03-23T04:45:00.522Z,4.05
2019-03-23T04:46:00.534Z,4.06
2019-03-23T04:47:00.544Z,4.11
2019-03-23T04:48:00.556Z,4.09
2019-03-23T04:49:00.563Z,4.06
2019-03-23T04:50:00.571Z,4.06
2019-03-23T04:51:00.579Z,4.09
2019-03-23T04:52:00.598Z,4.09
2019-03-23T04:53:00.603Z,4.08
2019-03-23T04:54:00.608Z,4.05
2019-03-23T04:55:00.622Z,4.08
2019-03-23T04:56:00.628Z,4.09
2019-03-23T04:57:00.638Z,4.05
2019-03-23T04:58:00.653Z,4.11
2019-03-23T04:59:00.662Z,3.93
2019-03-23T05:00:00.677Z,3.93
2019-03-23T05:01:00.680Z,3.91
2019-03-23T05:02:00.684Z,3.91
2019-03-23T05:03:00.695Z,3.98
2019-03-23T05:04:00.709Z,3.96
2019-03-23T05:05:00.722Z,3.98
2019-03-23T05:06:00.726Z,3.93
2019-03-23T05:07:00.730Z,3.96
2019-03-23T05:08:00.740Z,3.94
2019-03-23T05:09:00.754Z,3.90
2019-03-23T05:10:00.759Z,3.91
2019-03-23T05:11:00.774Z,3.86
2019-03-23T05:12:00.781Z,3.84
2019-03-23T05:13:00.792Z,3.86
2019-03-23T05:14:00.799Z,3.93
2019-03-23T05:15:00.810Z,3.83
2019-03-23T05:16:00.820Z,3.84
2019-03-23T05:17:00.825Z,3.93
2019-03-23T05:18:00.839Z,3.84
2019-03-23T05:19:00.847Z,3.84
2019-03-23T05:20:00.853Z,3.84
2019-03-23T05:21:00.868Z,3.86
2019-03-23T05:22:00.874Z,3.88
2019-03-23T05:23:00.886Z,3.93
2019-03-23T05:24:00.895Z,3.87
2019-03-23T05:25:00.900Z,3.90
2019-03-23T05:26:00.912Z,3.88
2019-03-23T05:27:00.939Z,3.86
2019-03-23T05:28:00.931Z,3.90
2019-03-23T05:29:00.940Z,3.91
2019-03-23T05:30:00.984Z,3.87
2019-03-23T05:31:00.956Z,3.90
2019-03-23T05:32:00.966Z,3.93
2019-03-23T05:33:00.976Z,3.93
2019-03-23T05:34:00.987Z,3.88
2019-03-23T05:35:00.995Z,3.90
2019-03-23T05:36:01.006Z,3.88
2019-03-23T05:37:01.018Z,3.88
2019-03-23T05:38:01.020Z,3.93
2019-03-23T05:39:01.031Z,3.86
2019-03-23T05:40:01.044Z,3.90
2019-03-23T05:41:01.053Z,3.84
2019-03-23T05:42:01.056Z,3.86
2019-03-23T05:43:01.070Z,3.87
2019-03-23T05:44:01.083Z,3.84
2019-03-23T05:45:01.086Z,3.80
2019-03-23T05:46:01.093Z,3.86
2019-03-23T05:47:01.111Z,3.83
2019-03-23T05:48:01.121Z,3.88
2019-03-23T05:49:01.122Z,3.91
2019-03-23T05:50:01.138Z,3.90
2019-03-23T05:51:01.148Z,3.91
2019-03-23T05:52:01.613Z,3.90
2019-03-23T05:53:01.165Z,3.91
2019-03-23T05:54:01.168Z,3.88
2019-03-23T05:55:01.186Z,3.93
2019-03-23T05:56:01.188Z,3.88
2019-03-23T05:57:01.196Z,3.98
2019-03-23T05:58:01.208Z,3.94
2019-03-23T05:59:01.215Z,3.97
2019-03-23T06:00:01.227Z,3.94
2019-03-23T06:01:01.236Z,3.94
2019-03-23T06:02:01.243Z,3.97
2019-03-23T06:03:01.255Z,3.96
2019-03-23T06:04:01.264Z,3.96
2019-03-23T06:05:01.276Z,3.93
2019-03-23T06:06:01.282Z,3.94
2019-03-23T06:07:01.299Z,3.90
2019-03-23T06:08:01.297Z,3.93
2019-03-23T06:09:01.308Z,3.94
2019-03-23T06:10:01.321Z,3.90
2019-03-23T06:11:01.331Z,3.93
2019-03-23T06:12:01.334Z,3.88
2019-03-23T06:13:01.348Z,3.87
2019-03-23T06:14:01.354Z,3.91
2019-03-23T06:15:01.365Z,3.90
2019-03-23T06:16:01.374Z,3.87
2019-03-23T06:17:01.386Z,3.93
2019-03-23T06:18:01.396Z,3.93
2019-03-23T06:19:01.410Z,3.93
2019-03-23T06:20:01.418Z,3.94
2019-03-23T06:21:01.422Z,3.96
2019-03-23T06:22:01.435Z,3.97
2019-03-23T06:23:01.477Z,4.00
2019-03-23T06:24:01.454Z,3.91
2019-03-23T06:25:01.462Z,4.00
2019-03-23T06:26:01.464Z,4.05
2019-03-23T06:27:01.477Z,4.04
2019-03-23T06:28:01.490Z,4.09
2019-03-23T06:29:01.493Z,4.04
2019-03-23T06:30:01.510Z,4.11
2019-03-23T06:31:01.511Z,4.05
2019-03-23T06:32:01.524Z,4.08
2019-03-23T06:33:01.535Z,4.14
2019-03-23T06:34:01.540Z,4.11
2019-03-23T06:35:01.551Z,4.09
2019-03-23T06:36:01.558Z,4.14
2019-03-23T06:37:01.571Z,4.09
2019-03-23T06:38:01.579Z,4.14
2019-03-23T06:39:05.693Z,4.22
2019-03-23T06:40:01.601Z,4.24
2019-03-23T06:41:01.609Z,4.26
2019-03-23T06:42:01.615Z,4.12
2019-03-23T06:43:01.624Z,4.32
2019-03-23T06:44:01.648Z,4.29
2019-03-23T06:45:01.647Z,4.26
2019-03-23T06:46:01.654Z,4.27
2019-03-23T06:47:01.664Z,4.27
2019-03-23T06:48:01.673Z,4.36
2019-03-23T06:49:01.680Z,4.41
2019-03-23T06:50:01.688Z,4.41
2019-03-23T06:51:03.315Z,4.37
2019-03-23T06:52:01.710Z,4.36
2019-03-23T06:53:01.717Z,4.34
2019-03-23T06:54:01.739Z,4.36
2019-03-23T06:55:01.737Z,4.34
2019-03-23T06:56:01.746Z,4.37
2019-03-23T06:57:01.759Z,4.29
2019-03-23T06:58:01.771Z,4.37
2019-03-23T06:59:01.785Z,4.34
2019-03-23T07:00:01.798Z,4.48
2019-03-23T07:01:01.795Z,4.50
2019-03-23T07:02:01.803Z,4.52
2019-03-23T07:03:01.816Z,4.75
2019-03-23T07:04:01.821Z,4.69
2019-03-23T07:05:01.839Z,4.84
2019-03-23T07:06:01.845Z,4.86
2019-03-23T07:07:01.854Z,5.15
2019-03-23T07:08:01.865Z,5.33
2019-03-23T07:09:01.874Z,5.60
2019-03-23T07:10:01.882Z,5.75
2019-03-23T07:11:01.893Z,5.78
2019-03-23T07:12:01.905Z,5.94
2019-03-23T07:13:01.914Z,5.91
2019-03-23T07:14:01.919Z,6.03
2019-03-23T07:15:01.933Z,6.01
2019-03-23T07:16:01.936Z,6.00
2019-03-23T07:17:01.953Z,6.12
2019-03-23T07:18:01.955Z,6.34
2019-03-23T07:19:01.970Z,6.49
2019-03-23T07:20:01.980Z,6.62
2019-03-23T07:21:01.992Z,6.66
2019-03-23T07:22:01.996Z,6.61
2019-03-23T07:23:02.007Z,6.70
2019-03-23T07:24:02.019Z,6.79
2019-03-23T07:25:02.031Z,6.74
2019-03-23T07:26:02.040Z,6.74
2019-03-23T07:27:02.048Z,6.81
2019-03-23T07:28:02.061Z,6.88
2019-03-23T07:29:02.068Z,6.81
2019-03-23T07:30:02.088Z,6.85
2019-03-23T07:31:02.094Z,6.80
2019-03-23T07:32:06.070Z,7.03
2019-03-23T07:33:02.122Z,6.99
2019-03-23T07:34:02.121Z,7.12
2019-03-23T07:35:02.128Z,7.25
2019-03-23T07:36:02.138Z,7.34
2019-03-23T07:37:02.149Z,7.34
2019-03-23T07:38:02.161Z,7.12
2019-03-23T07:39:02.169Z,7.06
2019-03-23T07:40:02.180Z,7.09
2019-03-23T07:41:02.189Z,7.17
2019-03-23T07:42:02.199Z,7.17
2019-03-23T07:43:02.214Z,7.13
2019-03-23T07:44:02.222Z,7.32
2019-03-23T07:45:02.232Z,7.25
2019-03-23T07:46:02.248Z,7.40
2019-03-23T07:47:02.254Z,7.58
2019-03-23T07:48:02.270Z,7.48
2019-03-23T07:49:02.272Z,7.37
2019-03-23T07:50:02.283Z,7.24
2019-03-23T07:51:02.299Z,7.34
2019-03-23T07:52:02.361Z,7.46
2019-03-23T07:53:02.313Z,7.27
2019-03-23T07:54:02.795Z,7.27
2019-03-23T07:55:02.333Z,7.24
2019-03-23T07:56:02.343Z,7.10
2019-03-23T07:57:02.359Z,7.15
2019-03-23T07:58:02.372Z,7.24
2019-03-23T07:59:02.380Z,7.35
2019-03-23T08:00:02.386Z,7.39
2019-03-23T08:01:02.396Z,7.57
2019-03-23T08:02:02.406Z,7.53
2019-03-23T08:03:02.422Z,7.31
2019-03-23T08:04:02.428Z,7.32
2019-03-23T08:05:02.445Z,7.50
2019-03-23T08:06:02.449Z,7.55
2019-03-23T08:07:02.464Z,7.79
2019-03-23T08:08:02.473Z,7.92
2019-03-23T08:09:02.490Z,7.82
2019-03-23T08:10:02.498Z,8.02
2019-03-23T08:11:02.502Z,8.01
2019-03-23T08:12:02.513Z,8.16
2019-03-23T08:13:02.525Z,8.22
2019-03-23T08:14:02.535Z,8.30
2019-03-23T08:15:02.549Z,8.28
2019-03-23T08:16:02.559Z,8.34
2019-03-23T08:17:02.572Z,8.30
2019-03-23T08:18:02.587Z,8.34
2019-03-23T08:19:02.594Z,8.61
2019-03-23T08:20:02.604Z,8.66
2019-03-23T08:21:02.614Z,8.62
2019-03-23T08:22:02.626Z,8.61
2019-03-23T08:23:02.634Z,8.61
2019-03-23T08:24:02.645Z,8.43
2019-03-23T08:25:02.658Z,8.40
2019-03-23T08:26:02.667Z,8.30
2019-03-23T08:27:02.680Z,8.55
2019-03-23T08:28:02.690Z,8.77
2019-03-23T08:29:03.314Z,8.65
2019-03-23T08:30:02.711Z,8.77
2019-03-23T08:31:02.726Z,8.79
2019-03-23T08:32:02.738Z,8.76
2019-03-23T08:33:02.751Z,8.71
2019-03-23T08:34:02.765Z,8.61
2019-03-23T08:35:02.768Z,8.68
2019-03-23T08:36:02.783Z,8.80
2019-03-23T08:37:02.791Z,8.71
2019-03-23T08:38:02.803Z,8.96
2019-03-23T08:39:02.816Z,9.02
2019-03-23T08:40:02.829Z,8.99
2019-03-23T08:41:02.837Z,8.73
2019-03-23T08:42:02.848Z,8.98
2019-03-23T08:43:02.864Z,8.99
2019-03-23T08:44:02.874Z,8.79
2019-03-23T08:45:02.883Z,8.71
2019-03-23T08:46:02.897Z,8.77
2019-03-23T08:47:02.912Z,8.37
2019-03-23T08:48:02.917Z,8.30
2019-03-23T08:49:02.933Z,8.44
2019-03-23T08:50:02.945Z,8.70
2019-03-23T08:51:02.957Z,8.96
2019-03-23T08:52:02.966Z,8.81
2019-03-23T08:53:02.989Z,8.77
2019-03-23T08:54:02.991Z,8.86
2019-03-23T08:55:03.005Z,8.98
2019-03-23T08:56:03.011Z,9.23
2019-03-23T08:57:03.027Z,9.29
2019-03-23T08:58:03.034Z,8.98
2019-03-23T08:59:03.045Z,8.79
2019-03-23T09:00:03.062Z,9.21
2019-03-23T09:01:03.078Z,9.33
2019-03-23T09:02:03.083Z,9.84
2019-03-23T09:03:03.883Z,9.90
2019-03-23T09:04:03.107Z,10.01
2019-03-23T09:05:03.133Z,9.94
2019-03-23T09:06:03.133Z,9.54
2019-03-23T09:07:03.147Z,9.75
2019-03-23T09:08:03.156Z,9.89
2019-03-23T09:09:03.173Z,9.79
2019-03-23T09:10:03.178Z,9.81
2019-03-23T09:11:03.192Z,9.72
2019-03-23T09:12:03.206Z,10.04
2019-03-23T09:13:03.216Z,10.34
2019-03-23T09:14:03.228Z,10.36
2019-03-23T09:15:03.240Z,10.68
2019-03-23T09:16:03.252Z,10.63
2019-03-23T09:17:03.264Z,10.68
2019-03-23T09:18:03.279Z,10.73
2019-03-23T09:19:03.287Z,10.60
2019-03-23T09:20:03.304Z,10.30
2019-03-23T09:21:03.316Z,9.94
2019-03-23T09:22:03.328Z,10.05
2019-03-23T09:23:03.339Z,10.02
2019-03-23T09:24:03.349Z,10.05
2019-03-23T09:25:03.369Z,9.75
2019-03-23T09:26:03.373Z,9.96
2019-03-23T09:27:03.390Z,9.78
2019-03-23T09:28:03.399Z,10.05
2019-03-23T09:29:03.418Z,10.15
2019-03-23T09:30:03.425Z,10.34
2019-03-23T09:31:03.441Z,10.61
2019-03-23T09:32:03.450Z,10.74
2019-03-23T09:33:03.467Z,10.74
2019-03-23T09:34:03.483Z,11.07
2019-03-23T09:35:03.491Z,11.02
2019-03-23T09:36:03.508Z,11.14
2019-03-23T09:37:03.522Z,11.10
2019-03-23T09:38:03.533Z,10.94
2019-03-23T09:39:03.541Z,10.76
2019-03-23T09:40:10.823Z,11.06
2019-03-23T09:41:03.573Z,11.28
2019-03-23T09:42:03.578Z,11.54
2019-03-23T09:43:03.595Z,11.73
2019-03-23T09:44:03.610Z,11.60
2019-03-23T09:45:03.626Z,11.47
2019-03-23T09:46:03.636Z,11.29
2019-03-23T09:47:03.650Z,10.94
2019-03-23T09:48:03.667Z,11.21
2019-03-23T09:49:03.672Z,11.43
2019-03-23T09:50:03.690Z,11.65
2019-03-23T09:51:03.699Z,11.83
2019-03-23T09:52:03.713Z,12.10
2019-03-23T09:53:03.733Z,12.12
2019-03-23T09:54:03.745Z,11.96
2019-03-23T09:55:03.757Z,11.95
2019-03-23T09:56:03.787Z,11.91
2019-03-23T09:57:03.788Z,12.37
2019-03-23T09:58:03.800Z,12.53
2019-03-23T09:59:03.812Z,12.53
2019-03-23T10:00:03.826Z,12.86
2019-03-23T10:01:03.839Z,12.67
2019-03-23T10:02:03.857Z,12.65
2019-03-23T10:03:03.867Z,12.04
2019-03-23T10:04:03.883Z,11.25
2019-03-23T10:05:03.893Z,11.22
2019-03-23T10:06:05.926Z,11.42
2019-03-23T10:07:03.922Z,11.98
2019-03-23T10:08:03.936Z,12.01
2019-03-23T10:09:03.951Z,12.35
2019-03-23T10:10:03.962Z,12.28
2019-03-23T10:11:03.982Z,12.28
2019-03-23T10:12:03.997Z,12.04
2019-03-23T10:13:04.010Z,12.34
2019-03-23T10:14:04.022Z,12.71
2019-03-23T10:15:04.037Z,12.17
2019-03-23T10:16:04.047Z,11.95
2019-03-23T10:17:04.062Z,12.32
2019-03-23T10:18:04.078Z,12.24
2019-03-23T10:19:04.089Z,12.39
2019-03-23T10:20:04.107Z,12.79
2019-03-23T10:21:04.119Z,12.57
2019-03-23T10:22:04.134Z,12.65
2019-03-23T10:23:04.157Z,12.09
2019-03-23T10:24:04.169Z,12.02
2019-03-23T10:25:04.179Z,11.86
2019-03-23T10:26:04.192Z,11.65
2019-03-23T10:27:04.204Z,11.86
2019-03-23T10:28:04.221Z,11.95
2019-03-23T10:29:04.232Z,11.90
2019-03-23T10:30:04.249Z,11.75
2019-03-23T10:31:04.263Z,12.27
2019-03-23T10:32:04.277Z,12.32
2019-03-23T10:33:04.292Z,12.37
2019-03-23T10:34:04.303Z,12.41
2019-03-23T10:35:04.322Z,12.59
2019-03-23T10:36:04.337Z,12.71
2019-03-23T10:37:04.351Z,13.08
2019-03-23T10:38:04.363Z,13.45
2019-03-23T10:39:04.382Z,13.52
2019-03-23T10:40:04.392Z,12.82
2019-03-23T10:41:04.412Z,12.62
2019-03-23T10:42:04.431Z,12.14
2019-03-23T10:43:04.442Z,12.45
2019-03-23T10:44:04.455Z,12.65
2019-03-23T10:45:04.472Z,12.16
2019-03-23T10:46:04.487Z,12.60
2019-03-23T10:47:04.494Z,13.10
2019-03-23T10:48:04.513Z,13.19
2019-03-23T10:49:04.535Z,13.63
2019-03-23T10:50:04.548Z,13.44
2019-03-23T10:51:04.561Z,13.88
2019-03-23T10:52:04.573Z,13.89
2019-03-23T10:53:04.590Z,13.57
2019-03-23T10:54:04.604Z,13.29
2019-03-23T10:55:04.617Z,13.67
2019-03-23T10:56:04.632Z,14.03
2019-03-23T10:57:04.653Z,14.18
2019-03-23T10:58:04.664Z,14.28
2019-03-23T10:59:04.680Z,14.39
2019-03-23T11:00:04.691Z,14.32
2019-03-23T11:01:04.710Z,14.43
2019-03-23T11:02:04.722Z,13.19
2019-03-23T11:03:04.741Z,13.36
2019-03-23T11:04:04.756Z,13.32
2019-03-23T11:05:04.773Z,12.49
2019-03-23T11:06:04.789Z,12.49
2019-03-23T11:07:04.800Z,12.72
2019-03-23T11:08:04.821Z,12.65
2019-03-23T11:09:04.832Z,12.89
2019-03-23T11:10:04.851Z,13.33
2019-03-23T11:11:04.866Z,13.17
2019-03-23T11:12:04.883Z,13.23
2019-03-23T11:13:04.898Z,12.78
2019-03-23T11:14:04.914Z,12.50
2019-03-23T11:15:04.926Z,13.20
2019-03-23T11:16:04.942Z,13.15
2019-03-23T11:17:04.956Z,13.26
2019-03-23T11:18:04.977Z,12.47
2019-03-23T11:19:13.191Z,12.59
2019-03-23T11:20:05.007Z,12.96
2019-03-23T11:21:05.019Z,12.79
2019-03-23T11:22:05.036Z,12.64
2019-03-23T11:23:05.062Z,12.54
2019-03-23T11:24:05.064Z,12.96
2019-03-23T11:25:05.080Z,13.04
2019-03-23T11:26:05.096Z,13.30
2019-03-23T11:27:05.110Z,13.19
2019-03-23T11:28:05.133Z,13.17
2019-03-23T11:29:05.148Z,13.51
2019-03-23T11:30:05.165Z,14.12
2019-03-23T11:31:05.173Z,14.60
2019-03-23T11:32:05.196Z,14.80
2019-03-23T11:33:05.238Z,15.11
2019-03-23T11:34:05.233Z,15.19
2019-03-23T11:35:05.345Z,15.16
2019-03-23T11:36:05.254Z,15.50
2019-03-23T11:37:05.341Z,15.74
2019-03-23T11:38:05.409Z,15.82
2019-03-23T11:39:05.305Z,16.05
2019-03-23T11:40:05.317Z,16.11
2019-03-23T11:41:05.337Z,16.00
2019-03-23T11:42:05.355Z,14.04
2019-03-23T11:43:05.367Z,13.66
2019-03-23T11:44:05.387Z,13.88
2019-03-23T11:45:05.400Z,14.45
2019-03-23T11:46:05.418Z,14.86
2019-03-23T11:47:05.439Z,14.39
2019-03-23T11:48:05.463Z,13.87
2019-03-23T11:49:05.474Z,13.85
2019-03-23T11:50:05.487Z,13.99
2019-03-23T11:51:05.504Z,13.49
2019-03-23T11:52:05.522Z,13.45
2019-03-23T11:53:05.534Z,13.95
2019-03-23T11:54:05.550Z,14.58
2019-03-23T11:55:05.570Z,13.75
2019-03-23T11:56:05.586Z,12.70
2019-03-23T11:57:05.601Z,12.54
2019-03-23T11:58:05.617Z,13.25
2019-03-23T11:59:05.633Z,13.62
2019-03-23T12:00:05.648Z,13.25
2019-03-23T12:01:05.665Z,13.49
2019-03-23T12:02:05.687Z,13.84
2019-03-23T12:03:05.727Z,13.81
2019-03-23T12:04:05.719Z,14.40
2019-03-23T12:05:05.736Z,14.77
2019-03-23T12:06:05.751Z,14.95
2019-03-23T12:07:05.766Z,14.58
2019-03-23T12:08:05.780Z,14.57
2019-03-23T12:09:05.799Z,15.02
2019-03-23T12:10:05.817Z,14.91
2019-03-23T12:11:05.833Z,14.75
2019-03-23T12:12:05.848Z,15.17
2019-03-23T12:13:05.867Z,15.35
2019-03-23T12:14:05.884Z,15.36
2019-03-23T12:15:05.897Z,15.39
2019-03-23T12:16:05.919Z,15.14
2019-03-23T12:17:05.933Z,14.39
2019-03-23T12:18:05.950Z,14.62
2019-03-23T12:19:05.967Z,14.84
2019-03-23T12:20:05.985Z,15.35
2019-03-23T12:21:06.001Z,15.51
2019-03-23T12:22:06.018Z,15.65
2019-03-23T12:23:06.035Z,15.80
2019-03-23T12:24:06.054Z,14.86
2019-03-23T12:25:06.068Z,14.40
2019-03-23T12:26:06.084Z,14.37
2019-03-23T12:27:06.104Z,14.52
2019-03-23T12:28:06.121Z,14.84
2019-03-23T12:29:06.137Z,14.18
2019-03-23T12:30:07.617Z,14.28
2019-03-23T12:31:06.176Z,14.45
2019-03-23T12:32:06.187Z,14.17
2019-03-23T12:33:06.209Z,13.66
2019-03-23T12:34:06.221Z,14.03
2019-03-23T12:35:06.237Z,14.02
2019-03-23T12:36:06.256Z,13.69
2019-03-23T12:37:06.274Z,14.18
2019-03-23T12:38:06.291Z,14.62
2019-03-23T12:39:06.310Z,14.36
2019-03-23T12:40:06.325Z,13.69
2019-03-23T12:41:14.157Z,14.32
2019-03-23T12:42:06.360Z,14.47
2019-03-23T12:43:06.377Z,13.84
2019-03-23T12:44:06.393Z,13.88
2019-03-23T12:45:06.411Z,14.33
2019-03-23T12:46:06.429Z,14.95
2019-03-23T12:47:06.444Z,14.78
2019-03-23T12:48:06.463Z,15.17
2019-03-23T12:49:06.485Z,14.96
2019-03-23T12:50:06.503Z,15.44
2019-03-23T12:51:06.516Z,15.94
2019-03-23T12:52:06.530Z,15.93
2019-03-23T12:53:06.551Z,16.50
2019-03-23T12:54:06.566Z,16.24
2019-03-23T12:55:06.588Z,16.21
2019-03-23T12:56:06.606Z,15.75
2019-03-23T12:57:06.617Z,15.64
2019-03-23T12:58:06.637Z,15.36
2019-03-23T12:59:06.656Z,15.59
2019-03-23T13:00:06.671Z,15.36
2019-03-23T13:01:06.690Z,15.39
2019-03-23T13:02:06.707Z,15.32
2019-03-23T13:03:06.723Z,15.03
2019-03-23T13:04:06.746Z,15.34
2019-03-23T13:05:06.762Z,15.25
2019-03-23T13:06:06.775Z,14.94
2019-03-23T13:07:06.796Z,14.96
2019-03-23T13:08:06.818Z,14.98
2019-03-23T13:09:06.836Z,15.32
2019-03-23T13:10:06.848Z,15.16
2019-03-23T13:11:06.867Z,15.69